createdAt,value
2018-09-17T00:00:26.362Z,12.49
2018-09-17T00:01:26.348Z,12.52
2018-09-17T00:02:26.341Z,12.44
2018-09-17T00:03:26.634Z,12.49
2018-09-17T00:04:26.315Z,12.46
2018-09-17T00:05:26.304Z,12.34
2018-09-17T00:06:26.297Z,12.54
2018-09-17T00:07:26.292Z,12.48
2018-09-17T00:08:26.278Z,12.37
2018-09-17T00:09:26.376Z,12.38
2018-09-17T00:10:26.267Z,12.26
2018-09-17T00:11:26.239Z,12.29
2018-09-17T00:12:26.226Z,12.37
2018-09-17T00:13:26.221Z,12.38
2018-09-17T00:14:26.507Z,12.44
2018-09-17T00:15:26.203Z,12.38
2018-09-17T00:16:26.193Z,12.43
2018-09-17T00:17:26.177Z,12.37
2018-09-17T00:18:26.165Z,12.36
2018-09-17T00:19:26.331Z,12.31
2018-09-17T00:20:26.141Z,12.23
2018-09-17T00:21:26.137Z,12.30
2018-09-17T00:22:26.118Z,12.31
2018-09-17T00:23:26.115Z,12.33
2018-09-17T00:24:26.163Z,12.22
2018-09-17T00:25:26.088Z,12.26
2018-09-17T00:26:26.086Z,12.23
2018-09-17T00:27:26.076Z,12.21
2018-09-17T00:28:26.263Z,12.23
2018-09-17T00:29:26.305Z,12.25
2018-09-17T00:30:26.033Z,12.25
2018-09-17T00:31:26.029Z,12.25
2018-09-17T00:32:26.013Z,12.31
2018-09-17T00:33:26.005Z,12.22
2018-09-17T00:34:26.130Z,12.25
2018-09-17T00:35:26.028Z,12.21
2018-09-17T00:36:25.967Z,12.25
2018-09-17T00:37:26.005Z,12.07
2018-09-17T00:38:25.949Z,12.11
2018-09-17T00:39:26.319Z,12.15
2018-09-17T00:40:25.930Z,12.21
2018-09-17T00:41:25.916Z,12.22
2018-09-17T00:42:25.906Z,12.19
2018-09-17T00:43:25.895Z,12.21
2018-09-17T00:44:25.886Z,12.15
2018-09-17T00:45:26.012Z,12.12
2018-09-17T00:46:25.864Z,12.18
2018-09-17T00:47:25.856Z,12.11
2018-09-17T00:48:25.840Z,12.11
2018-09-17T00:49:25.829Z,12.16
2018-09-17T00:50:26.156Z,12.16
2018-09-17T00:51:25.829Z,12.11
2018-09-17T00:52:25.800Z,12.11
2018-09-17T00:53:25.786Z,11.98
2018-09-17T00:54:25.778Z,11.84
2018-09-17T00:55:25.978Z,11.98
2018-09-17T00:56:25.765Z,11.96
2018-09-17T00:57:25.750Z,12.04
2018-09-17T00:58:25.739Z,12.03
2018-09-17T00:59:25.724Z,12.12
2018-09-17T01:00:25.809Z,12.04
2018-09-17T01:01:25.706Z,12.13
2018-09-17T01:02:25.699Z,12.07
2018-09-17T01:03:25.687Z,12.11
2018-09-17T01:04:25.670Z,12.08
2018-09-17T01:05:25.949Z,12.13
2018-09-17T01:06:25.644Z,12.03
2018-09-17T01:07:25.641Z,12.00
2018-09-17T01:08:25.641Z,12.00
2018-09-17T01:09:25.611Z,11.97
2018-09-17T01:10:25.607Z,11.97
2018-09-17T01:11:25.685Z,12.00
2018-09-17T01:12:25.585Z,11.85
2018-09-17T01:13:25.573Z,11.98
2018-09-17T01:14:25.578Z,11.97
2018-09-17T01:15:25.545Z,12.00
2018-09-17T01:16:25.823Z,11.90
2018-09-17T01:17:25.529Z,12.00
2018-09-17T01:18:25.518Z,11.96
2018-09-17T01:19:25.507Z,11.96
2018-09-17T01:20:25.504Z,11.98
2018-09-17T01:21:25.652Z,11.90
2018-09-17T01:22:25.474Z,11.88
2018-09-17T01:23:25.462Z,11.90
2018-09-17T01:24:25.460Z,11.90
2018-09-17T01:25:25.447Z,11.96
2018-09-17T01:26:25.490Z,11.88
2018-09-17T01:27:25.417Z,11.87
2018-09-17T01:28:25.414Z,11.85
2018-09-17T01:29:25.402Z,11.84
2018-09-17T01:30:25.448Z,11.78
2018-09-17T01:31:25.620Z,11.79
2018-09-17T01:32:25.375Z,11.78
2018-09-17T01:33:25.361Z,11.78
2018-09-17T01:34:25.349Z,11.79
2018-09-17T01:35:25.337Z,11.75
2018-09-17T01:36:25.450Z,11.78
2018-09-17T01:37:25.322Z,11.62
2018-09-17T01:38:25.307Z,11.59
2018-09-17T01:39:25.293Z,11.63
2018-09-17T01:40:25.280Z,11.57
2018-09-17T01:41:25.271Z,11.57
2018-09-17T01:42:25.494Z,11.59
2018-09-17T01:43:25.251Z,11.60
2018-09-17T01:44:25.241Z,11.56
2018-09-17T01:45:25.231Z,11.62
2018-09-17T01:46:25.217Z,11.63
2018-09-17T01:47:25.327Z,11.70
2018-09-17T01:48:25.196Z,11.64
2018-09-17T01:49:25.184Z,11.62
2018-09-17T01:50:25.176Z,11.54
2018-09-17T01:51:25.160Z,11.51
2018-09-17T01:52:25.464Z,11.62
2018-09-17T01:53:25.147Z,11.62
2018-09-17T01:54:25.135Z,11.54
2018-09-17T01:55:25.118Z,11.49
2018-09-17T01:56:25.108Z,11.57
2018-09-17T01:57:25.296Z,11.51
2018-09-17T01:58:25.086Z,11.56
2018-09-17T01:59:25.080Z,11.48
2018-09-17T02:00:25.075Z,11.41
2018-09-17T02:01:25.058Z,11.46
2018-09-17T02:02:25.131Z,11.46
2018-09-17T02:03:25.028Z,11.51
2018-09-17T02:04:25.020Z,11.51
2018-09-17T02:05:25.012Z,11.48
2018-09-17T02:06:25.010Z,11.45
2018-09-17T02:07:25.267Z,11.45
2018-09-17T02:08:24.982Z,11.51
2018-09-17T02:09:24.967Z,11.51
2018-09-17T02:10:24.959Z,11.45
2018-09-17T02:11:24.946Z,11.49
2018-09-17T02:12:24.936Z,11.44
2018-09-17T02:13:25.000Z,11.46
2018-09-17T02:14:24.909Z,11.54
2018-09-17T02:15:24.911Z,11.54
2018-09-17T02:16:24.899Z,11.53
2018-09-17T02:17:24.885Z,11.57
2018-09-17T02:18:25.137Z,11.51
2018-09-17T02:19:24.867Z,11.49
2018-09-17T02:20:24.844Z,11.45
2018-09-17T02:21:24.836Z,11.57
2018-09-17T02:22:24.829Z,11.35
2018-09-17T02:23:24.976Z,11.31
2018-09-17T02:24:24.813Z,11.30
2018-09-17T02:25:24.801Z,11.33
2018-09-17T02:26:24.792Z,11.48
2018-09-17T02:27:24.771Z,11.48
2018-09-17T02:28:25.115Z,11.48
2018-09-17T02:29:24.750Z,11.45
2018-09-17T02:30:24.740Z,11.48
2018-09-17T02:31:24.737Z,11.53
2018-09-17T02:32:24.717Z,11.62
2018-09-17T02:33:24.708Z,11.54
2018-09-17T02:34:24.858Z,11.49
2018-09-17T02:35:24.688Z,11.56
2018-09-17T02:36:24.685Z,11.53
2018-09-17T02:37:24.672Z,11.53
2018-09-17T02:38:24.655Z,11.59
2018-09-17T02:39:24.988Z,11.63
2018-09-17T02:40:24.635Z,11.59
2018-09-17T02:41:24.622Z,11.56
2018-09-17T02:42:24.608Z,11.56
2018-09-17T02:43:24.599Z,11.62
2018-09-17T02:44:24.818Z,11.60
2018-09-17T02:45:24.579Z,11.56
2018-09-17T02:46:24.570Z,11.57
2018-09-17T02:47:24.556Z,11.62
2018-09-17T02:48:24.545Z,11.74
2018-09-17T02:49:24.655Z,11.67
2018-09-17T02:50:24.523Z,11.66
2018-09-17T02:51:24.517Z,11.79
2018-09-17T02:52:24.502Z,11.70
2018-09-17T02:53:24.503Z,11.59
2018-09-17T02:54:26.635Z,11.46
2018-09-17T02:55:24.489Z,11.48
2018-09-17T02:56:24.461Z,11.57
2018-09-17T02:57:24.453Z,11.59
2018-09-17T02:58:24.446Z,11.74
2018-09-17T02:59:24.622Z,11.67
2018-09-17T03:00:24.417Z,11.70
2018-09-17T03:01:24.412Z,11.75
2018-09-17T03:02:24.401Z,11.72
2018-09-17T03:03:24.387Z,11.79
2018-09-17T03:04:24.447Z,11.87
2018-09-17T03:05:24.365Z,11.85
2018-09-17T03:06:24.355Z,11.85
2018-09-17T03:07:24.344Z,11.96
2018-09-17T03:08:24.339Z,12.00
2018-09-17T03:09:24.597Z,12.03
2018-09-17T03:10:24.320Z,12.00
2018-09-17T03:11:24.302Z,12.01
2018-09-17T03:12:24.293Z,12.05
2018-09-17T03:13:24.283Z,12.00
2018-09-17T03:14:24.414Z,12.01
2018-09-17T03:15:24.263Z,11.90
2018-09-17T03:16:24.241Z,11.93
2018-09-17T03:17:24.239Z,11.90
2018-09-17T03:18:24.225Z,11.84
2018-09-17T03:19:24.219Z,11.94
2018-09-17T03:20:24.460Z,11.96
2018-09-17T03:21:24.191Z,11.72
2018-09-17T03:22:24.176Z,11.64
2018-09-17T03:23:24.174Z,11.72
2018-09-17T03:24:24.162Z,11.74
2018-09-17T03:25:24.297Z,11.74
2018-09-17T03:26:24.137Z,11.67
2018-09-17T03:27:24.126Z,11.67
2018-09-17T03:28:24.112Z,11.67
2018-09-17T03:29:24.109Z,11.67
2018-09-17T03:30:24.429Z,11.72
2018-09-17T03:31:24.090Z,11.66
2018-09-17T03:32:24.075Z,11.74
2018-09-17T03:33:24.057Z,11.69
2018-09-17T03:34:24.051Z,11.67
2018-09-17T03:35:24.265Z,11.67
2018-09-17T03:36:24.037Z,11.66
2018-09-17T03:37:24.028Z,11.69
2018-09-17T03:38:24.006Z,11.59
2018-09-17T03:39:23.994Z,11.59
2018-09-17T03:40:23.987Z,11.42
2018-09-17T03:41:24.311Z,11.38
2018-09-17T03:42:23.968Z,11.44
2018-09-17T03:43:23.950Z,11.46
2018-09-17T03:44:23.943Z,11.39
2018-09-17T03:45:23.930Z,11.35
2018-09-17T03:46:24.167Z,11.24
2018-09-17T03:47:23.911Z,11.30
2018-09-17T03:48:23.903Z,11.44
2018-09-17T03:49:23.891Z,11.46
2018-09-17T03:50:23.882Z,11.45
2018-09-17T03:51:24.274Z,11.44
2018-09-17T03:52:23.855Z,11.46
2018-09-17T03:53:23.849Z,11.39
2018-09-17T03:54:23.846Z,11.44
2018-09-17T03:55:23.821Z,11.42
2018-09-17T03:56:24.111Z,11.44
2018-09-17T03:57:23.799Z,11.41
2018-09-17T03:58:23.796Z,11.44
2018-09-17T03:59:23.783Z,11.45
2018-09-17T04:00:23.781Z,11.38
2018-09-17T04:01:23.933Z,11.42
2018-09-17T04:02:23.753Z,11.48
2018-09-17T04:03:23.739Z,11.42
2018-09-17T04:04:23.725Z,11.42
2018-09-17T04:05:23.722Z,11.44
2018-09-17T04:06:23.773Z,11.28
2018-09-17T04:07:23.690Z,11.26
2018-09-17T04:08:23.683Z,11.27
2018-09-17T04:09:23.676Z,11.27
2018-09-17T04:10:23.663Z,11.24
2018-09-17T04:11:23.911Z,11.31
2018-09-17T04:12:23.647Z,11.26
2018-09-17T04:13:23.629Z,11.28
2018-09-17T04:14:23.616Z,11.27
2018-09-17T04:15:23.610Z,11.27
2018-09-17T04:16:23.598Z,11.24
2018-09-17T04:17:23.641Z,11.11
2018-09-17T04:18:23.580Z,11.16
2018-09-17T04:19:23.568Z,11.19
2018-09-17T04:20:23.552Z,11.16
2018-09-17T04:21:23.540Z,11.17
2018-09-17T04:22:23.787Z,11.09
2018-09-17T04:23:23.528Z,11.12
2018-09-17T04:24:23.514Z,11.17
2018-09-17T04:25:23.501Z,11.20
2018-09-17T04:26:23.492Z,11.17
2018-09-17T04:27:23.614Z,11.13
2018-09-17T04:28:23.469Z,11.19
2018-09-17T04:29:23.460Z,11.11
2018-09-17T04:30:23.452Z,11.08
2018-09-17T04:31:23.446Z,11.03
2018-09-17T04:32:23.748Z,11.06
2018-09-17T04:33:23.418Z,11.08
2018-09-17T04:34:23.405Z,11.06
2018-09-17T04:35:23.393Z,11.08
2018-09-17T04:36:23.380Z,11.09
2018-09-17T04:37:23.375Z,11.11
2018-09-17T04:38:23.484Z,11.09
2018-09-17T04:39:23.350Z,11.03
2018-09-17T04:40:23.339Z,11.08
2018-09-17T04:41:23.335Z,10.98
2018-09-17T04:42:23.320Z,10.99
2018-09-17T04:43:23.623Z,11.02
2018-09-17T04:44:23.298Z,11.06
2018-09-17T04:45:23.291Z,11.09
2018-09-17T04:46:23.271Z,11.01
2018-09-17T04:47:23.276Z,11.01
2018-09-17T04:48:23.469Z,11.05
2018-09-17T04:49:23.247Z,10.99
2018-09-17T04:50:23.233Z,10.95
2018-09-17T04:51:23.227Z,10.95
2018-09-17T04:52:23.208Z,10.87
2018-09-17T04:53:23.288Z,10.91
2018-09-17T04:54:23.189Z,10.87
2018-09-17T04:55:23.177Z,10.94
2018-09-17T04:56:23.172Z,10.94
2018-09-17T04:57:25.237Z,10.99
2018-09-17T04:58:23.429Z,10.98
2018-09-17T04:59:23.142Z,10.93
2018-09-17T05:00:23.244Z,10.95
2018-09-17T05:01:23.603Z,11.03
2018-09-17T05:02:23.107Z,11.02
2018-09-17T05:03:23.310Z,10.88
2018-09-17T05:04:23.083Z,10.83
2018-09-17T05:05:23.393Z,10.80
2018-09-17T05:06:23.061Z,10.84
2018-09-17T05:07:23.100Z,10.84
2018-09-17T05:08:23.092Z,10.80
2018-09-17T05:09:23.029Z,10.75
2018-09-17T05:10:23.013Z,10.80
2018-09-17T05:11:23.009Z,10.94
2018-09-17T05:12:22.996Z,10.90
2018-09-17T05:13:23.169Z,10.91
2018-09-17T05:14:23.134Z,10.94
2018-09-17T05:15:22.960Z,10.99
2018-09-17T05:16:22.954Z,10.99
2018-09-17T05:17:22.941Z,11.11
2018-09-17T05:18:22.933Z,11.11
2018-09-17T05:19:22.965Z,11.19
2018-09-17T05:20:22.917Z,11.24
2018-09-17T05:21:22.899Z,11.12
2018-09-17T05:22:22.899Z,11.17
2018-09-17T05:23:22.889Z,11.08
2018-09-17T05:24:23.103Z,11.08
2018-09-17T05:25:22.859Z,11.16
2018-09-17T05:26:22.844Z,11.27
2018-09-17T05:27:22.838Z,11.36
2018-09-17T05:28:22.829Z,11.41
2018-09-17T05:29:22.937Z,11.57
2018-09-17T05:30:22.805Z,11.46
2018-09-17T05:31:22.791Z,11.48
2018-09-17T05:32:22.780Z,11.49
2018-09-17T05:33:22.774Z,11.54
2018-09-17T05:34:22.765Z,11.59
2018-09-17T05:35:22.981Z,11.54
2018-09-17T05:36:22.744Z,11.67
2018-09-17T05:37:22.727Z,11.77
2018-09-17T05:38:22.713Z,11.87
2018-09-17T05:39:22.709Z,11.90
2018-09-17T05:40:22.806Z,12.03
2018-09-17T05:41:22.684Z,12.11
2018-09-17T05:42:22.679Z,12.08
2018-09-17T05:43:22.661Z,12.11
2018-09-17T05:44:22.717Z,12.18
2018-09-17T05:45:22.948Z,12.23
2018-09-17T05:46:22.631Z,12.26
2018-09-17T05:47:22.621Z,12.31
2018-09-17T05:48:22.606Z,12.30
2018-09-17T05:49:22.599Z,12.38
2018-09-17T05:50:22.776Z,12.52
2018-09-17T05:51:22.575Z,12.56
2018-09-17T05:52:22.574Z,12.67
2018-09-17T05:53:22.563Z,12.76
2018-09-17T05:54:22.546Z,12.87
2018-09-17T05:55:22.609Z,12.95
2018-09-17T05:56:22.525Z,12.95
2018-09-17T05:57:22.521Z,13.06
2018-09-17T05:58:22.511Z,13.13
2018-09-17T05:59:22.494Z,13.27
2018-09-17T06:00:22.482Z,13.32
2018-09-17T06:01:22.651Z,13.25
2018-09-17T06:02:22.458Z,13.22
2018-09-17T06:03:22.448Z,13.39
2018-09-17T06:04:22.444Z,13.41
2018-09-17T06:05:22.437Z,13.44
2018-09-17T06:06:22.484Z,13.36
2018-09-17T06:07:22.406Z,13.43
2018-09-17T06:08:22.393Z,13.35
2018-09-17T06:09:22.386Z,13.46
2018-09-17T06:10:22.375Z,13.46
2018-09-17T06:11:22.631Z,13.50
2018-09-17T06:12:22.352Z,13.48
2018-09-17T06:13:22.337Z,13.32
2018-09-17T06:14:22.330Z,13.36
2018-09-17T06:15:22.317Z,13.54
2018-09-17T06:16:22.456Z,13.71
2018-09-17T06:17:22.356Z,13.80
2018-09-17T06:18:22.294Z,13.94
2018-09-17T06:19:22.286Z,14.01
2018-09-17T06:20:22.273Z,14.12
2018-09-17T06:21:22.591Z,14.29
2018-09-17T06:22:22.246Z,14.36
2018-09-17T06:23:22.443Z,14.36
2018-09-17T06:24:22.217Z,14.39
2018-09-17T06:25:22.206Z,14.45
2018-09-17T06:26:22.439Z,14.59
2018-09-17T06:27:22.197Z,14.69
2018-09-17T06:28:22.179Z,14.72
2018-09-17T06:29:22.191Z,14.64
2018-09-17T06:30:22.154Z,14.79
2018-09-17T06:31:22.564Z,14.80
2018-09-17T06:32:22.143Z,14.75
2018-09-17T06:33:22.131Z,14.63
2018-09-17T06:34:22.116Z,14.46
2018-09-17T06:35:22.105Z,14.56
2018-09-17T06:36:22.192Z,14.59
2018-09-17T06:37:22.597Z,14.41
2018-09-17T06:38:22.080Z,14.45
2018-09-17T06:39:22.070Z,14.67
2018-09-17T06:40:22.230Z,14.79
2018-09-17T06:41:22.216Z,15.00
2018-09-17T06:42:22.130Z,15.15
2018-09-17T06:43:22.227Z,15.38
2018-09-17T06:44:22.264Z,15.34
2018-09-17T06:45:22.002Z,15.40
2018-09-17T06:46:21.982Z,15.34
2018-09-17T06:47:22.270Z,15.34
2018-09-17T06:48:21.965Z,15.38
2018-09-17T06:49:21.948Z,15.18
2018-09-17T06:50:21.948Z,15.25
2018-09-17T06:51:21.981Z,15.35
2018-09-17T06:52:22.106Z,15.43
2018-09-17T06:53:21.912Z,15.49
2018-09-17T06:54:21.899Z,15.44
2018-09-17T06:55:21.888Z,15.40
2018-09-17T06:56:21.880Z,15.38
2018-09-17T06:57:21.925Z,15.44
2018-09-17T06:58:21.867Z,15.51
2018-09-17T06:59:21.850Z,15.53
2018-09-17T07:00:21.834Z,15.56
2018-09-17T07:01:21.824Z,15.52
2018-09-17T07:02:21.814Z,15.77
2018-09-17T07:03:21.970Z,15.59
2018-09-17T07:04:21.790Z,15.66
2018-09-17T07:05:21.780Z,15.77
2018-09-17T07:06:22.069Z,15.92
2018-09-17T07:07:21.764Z,15.95
2018-09-17T07:08:22.110Z,16.04
2018-09-17T07:09:21.742Z,16.06
2018-09-17T07:10:21.724Z,16.34
2018-09-17T07:11:21.719Z,16.50
2018-09-17T07:12:21.710Z,16.63
2018-09-17T07:13:21.939Z,16.70
2018-09-17T07:14:21.681Z,16.77
2018-09-17T07:15:21.687Z,16.73
2018-09-17T07:16:21.661Z,16.69
2018-09-17T07:17:21.656Z,16.78
2018-09-17T07:18:21.772Z,16.73
2018-09-17T07:19:21.638Z,16.59
2018-09-17T07:20:21.624Z,16.75
2018-09-17T07:21:21.620Z,16.81
2018-09-17T07:22:21.598Z,16.96
2018-09-17T07:23:21.908Z,16.99
2018-09-17T07:24:21.572Z,17.10
2018-09-17T07:25:21.620Z,17.17
2018-09-17T07:26:21.552Z,17.18
2018-09-17T07:27:21.550Z,17.35
2018-09-17T07:28:21.736Z,17.63
2018-09-17T07:29:21.521Z,17.60
2018-09-17T07:30:21.515Z,17.54
2018-09-17T07:31:21.506Z,17.77
2018-09-17T07:32:21.488Z,17.74
2018-09-17T07:33:21.581Z,17.74
2018-09-17T07:34:21.468Z,17.96
2018-09-17T07:35:21.459Z,18.05
2018-09-17T07:36:21.463Z,18.32
2018-09-17T07:37:21.441Z,18.25
2018-09-17T07:38:21.717Z,18.29
2018-09-17T07:39:21.419Z,18.23
2018-09-17T07:40:21.400Z,18.35
2018-09-17T07:41:21.393Z,18.31
2018-09-17T07:42:21.379Z,18.34
2018-09-17T07:43:21.372Z,18.31
2018-09-17T07:44:21.455Z,18.54
2018-09-17T07:45:21.358Z,18.82
2018-09-17T07:46:21.340Z,18.69
2018-09-17T07:47:21.333Z,18.82
2018-09-17T07:48:21.320Z,18.79
2018-09-17T07:49:21.594Z,18.99
2018-09-17T07:50:21.299Z,19.15
2018-09-17T07:51:21.280Z,19.32
2018-09-17T07:52:21.278Z,19.35
2018-09-17T07:53:21.264Z,19.53
2018-09-17T07:54:21.465Z,19.42
2018-09-17T07:55:21.249Z,19.65
2018-09-17T07:56:21.238Z,19.58
2018-09-17T07:57:21.227Z,19.67
2018-09-17T07:58:21.210Z,19.72
2018-09-17T07:59:21.253Z,19.65
2018-09-17T08:00:21.186Z,19.62
2018-09-17T08:01:21.183Z,19.97
2018-09-17T08:02:21.176Z,20.16
2018-09-17T08:03:21.160Z,20.31
2018-09-17T08:04:21.394Z,20.54
2018-09-17T08:05:21.134Z,20.63
2018-09-17T08:06:21.121Z,20.72
2018-09-17T08:07:21.110Z,20.61
2018-09-17T08:08:21.106Z,20.69
2018-09-17T08:09:21.222Z,20.68
2018-09-17T08:10:21.080Z,20.60
2018-09-17T08:11:21.076Z,20.48
2018-09-17T08:12:21.053Z,20.50
2018-09-17T08:13:21.048Z,20.58
2018-09-17T08:14:21.354Z,20.79
2018-09-17T08:15:21.033Z,20.71
2018-09-17T08:16:21.016Z,20.83
2018-09-17T08:17:21.005Z,20.88
2018-09-17T08:18:20.991Z,20.91
2018-09-17T08:19:21.198Z,21.03
2018-09-17T08:20:20.978Z,21.21
2018-09-17T08:21:20.960Z,21.06
2018-09-17T08:22:20.946Z,21.11
2018-09-17T08:23:20.941Z,21.06
2018-09-17T08:24:21.018Z,21.18
2018-09-17T08:25:20.926Z,21.34
2018-09-17T08:26:20.914Z,21.49
2018-09-17T08:27:20.904Z,21.56
2018-09-17T08:28:20.887Z,21.43
2018-09-17T08:29:21.163Z,21.36
2018-09-17T08:30:20.867Z,21.03
2018-09-17T08:31:20.874Z,21.15
2018-09-17T08:32:20.856Z,21.31
2018-09-17T08:33:20.838Z,21.31
2018-09-17T08:34:20.821Z,21.36
2018-09-17T08:35:20.894Z,21.28
2018-09-17T08:36:20.795Z,21.40
2018-09-17T08:37:20.793Z,21.58
2018-09-17T08:38:20.840Z,21.90
2018-09-17T08:39:20.774Z,22.17
2018-09-17T08:40:21.030Z,22.15
2018-09-17T08:41:20.746Z,21.94
2018-09-17T08:42:20.734Z,22.08
2018-09-17T08:43:20.726Z,22.08
2018-09-17T08:44:20.715Z,22.14
2018-09-17T08:45:20.863Z,22.19
2018-09-17T08:46:20.692Z,21.90
2018-09-17T08:47:20.683Z,22.04
2018-09-17T08:48:20.683Z,22.12
2018-09-17T08:49:20.665Z,22.19
2018-09-17T08:50:20.696Z,22.38
2018-09-17T08:51:20.636Z,22.27
2018-09-17T08:52:20.664Z,22.21
2018-09-17T08:53:20.620Z,22.33
2018-09-17T08:54:20.614Z,22.49
2018-09-17T08:55:21.756Z,22.61
2018-09-17T08:56:20.599Z,22.48
2018-09-17T08:57:20.578Z,22.52
2018-09-17T08:58:20.625Z,22.61
2018-09-17T08:59:20.560Z,22.59
2018-09-17T09:00:20.661Z,22.49
2018-09-17T09:01:20.538Z,22.42
2018-09-17T09:02:20.526Z,22.17
2018-09-17T09:03:20.510Z,22.24
2018-09-17T09:04:20.499Z,22.36
2018-09-17T09:05:20.490Z,22.44
2018-09-17T09:06:20.720Z,22.36
2018-09-17T09:07:20.477Z,22.30
2018-09-17T09:08:20.468Z,22.12
2018-09-17T09:09:20.450Z,22.31
2018-09-17T09:10:20.438Z,22.69
2018-09-17T09:11:20.535Z,22.81
2018-09-17T09:12:20.419Z,22.67
2018-09-17T09:13:20.414Z,22.51
2018-09-17T09:14:20.388Z,22.60
2018-09-17T09:15:20.386Z,22.57
2018-09-17T09:16:20.674Z,22.82
2018-09-17T09:17:20.657Z,23.23
2018-09-17T09:18:20.356Z,23.41
2018-09-17T09:19:20.348Z,23.42
2018-09-17T09:20:20.326Z,23.42
2018-09-17T09:21:20.503Z,23.56
2018-09-17T09:22:20.315Z,23.68
2018-09-17T09:23:20.295Z,23.45
2018-09-17T09:24:20.292Z,23.52
2018-09-17T09:25:20.288Z,23.72
2018-09-17T09:26:20.373Z,23.75
2018-09-17T09:27:20.258Z,23.93
2018-09-17T09:28:20.243Z,24.05
2018-09-17T09:29:20.231Z,24.21
2018-09-17T09:30:20.225Z,24.05
2018-09-17T09:31:20.475Z,23.96
2018-09-17T09:32:20.199Z,23.94
2018-09-17T09:33:20.195Z,24.06
2018-09-17T09:34:20.183Z,23.86
2018-09-17T09:35:20.173Z,23.68
2018-09-17T09:36:20.306Z,23.81
2018-09-17T09:37:20.155Z,24.09
2018-09-17T09:38:20.142Z,24.24
2018-09-17T09:39:20.135Z,23.96
2018-09-17T09:40:20.113Z,24.21
2018-09-17T09:41:20.450Z,24.39
2018-09-17T09:42:20.103Z,24.48
2018-09-17T09:43:20.088Z,24.60
2018-09-17T09:44:20.071Z,24.68
2018-09-17T09:45:20.061Z,24.83
2018-09-17T09:46:20.293Z,24.77
2018-09-17T09:47:20.044Z,24.68
2018-09-17T09:48:20.040Z,24.52
2018-09-17T09:49:20.024Z,24.67
2018-09-17T09:50:20.017Z,24.89
2018-09-17T09:51:20.011Z,24.93
2018-09-17T09:52:20.323Z,24.99
2018-09-17T09:53:19.988Z,25.04
2018-09-17T09:54:19.980Z,25.12
2018-09-17T09:55:20.954Z,25.17
2018-09-17T09:56:19.960Z,25.08
2018-09-17T09:57:21.379Z,24.92
2018-09-17T09:58:19.933Z,25.16
2018-09-17T09:59:19.925Z,25.29
2018-09-17T10:00:19.922Z,25.12
2018-09-17T10:01:19.907Z,25.23
2018-09-17T10:02:21.530Z,24.71
2018-09-17T10:03:19.882Z,24.92
2018-09-17T10:04:19.876Z,24.87
2018-09-17T10:05:19.861Z,25.01
2018-09-17T10:06:19.854Z,25.04
2018-09-17T10:07:40.851Z,24.97
2018-09-17T10:08:19.841Z,25.01
2018-09-17T10:09:19.824Z,25.22
2018-09-17T10:10:19.814Z,25.42
2018-09-17T10:11:19.804Z,25.56
2018-09-17T10:12:21.177Z,25.30
2018-09-17T10:13:19.783Z,25.34
2018-09-17T10:14:19.774Z,24.94
2018-09-17T10:15:19.763Z,25.01
2018-09-17T10:16:20.663Z,25.16
2018-09-17T10:17:20.661Z,25.38
2018-09-17T10:18:20.004Z,24.68
2018-09-17T10:19:20.932Z,24.79
2018-09-17T10:20:20.665Z,24.74
2018-09-17T10:21:20.964Z,24.98
2018-09-17T10:22:20.961Z,25.09
2018-09-17T10:23:20.747Z,25.23
2018-09-17T10:24:20.461Z,25.35
2018-09-17T10:25:19.664Z,25.44
2018-09-17T10:26:19.642Z,25.44
2018-09-17T10:27:19.625Z,25.54
2018-09-17T10:28:19.972Z,25.75
2018-09-17T10:29:19.607Z,25.48
2018-09-17T10:30:20.474Z,25.54
2018-09-17T10:31:19.593Z,25.53
2018-09-17T10:32:19.582Z,25.71
2018-09-17T10:33:19.895Z,25.96
2018-09-17T10:34:19.562Z,25.82
2018-09-17T10:35:19.546Z,25.78
2018-09-17T10:36:19.541Z,25.64
2018-09-17T10:37:19.531Z,25.49
2018-09-17T10:38:19.935Z,25.63
2018-09-17T10:39:19.511Z,25.86
2018-09-17T10:40:19.504Z,25.86
2018-09-17T10:41:19.477Z,25.71
2018-09-17T10:42:19.461Z,25.66
2018-09-17T10:43:19.771Z,25.34
2018-09-17T10:44:20.137Z,25.46
2018-09-17T10:45:19.732Z,25.56
2018-09-17T10:46:19.420Z,25.61
2018-09-17T10:47:19.709Z,25.74
2018-09-17T10:48:19.612Z,25.53
2018-09-17T10:49:19.391Z,25.63
2018-09-17T10:50:19.380Z,25.69
2018-09-17T10:51:19.371Z,25.85
2018-09-17T10:52:19.361Z,25.98
2018-09-17T10:53:19.427Z,25.89
2018-09-17T10:54:20.145Z,25.89
2018-09-17T10:55:19.331Z,26.03
2018-09-17T10:56:19.321Z,26.00
2018-09-17T10:57:19.329Z,26.23
2018-09-17T10:58:19.301Z,26.31
2018-09-17T10:59:19.467Z,26.13
2018-09-17T11:00:19.281Z,26.21
2018-09-17T11:01:19.274Z,25.23
2018-09-17T11:02:19.261Z,25.36
2018-09-17T11:03:19.252Z,25.82
2018-09-17T11:04:19.304Z,26.13
2018-09-17T11:05:19.231Z,26.31
2018-09-17T11:06:20.136Z,26.68
2018-09-17T11:07:20.137Z,26.68
2018-09-17T11:08:19.268Z,26.49
2018-09-17T11:09:19.443Z,26.50
2018-09-17T11:10:19.179Z,26.32
2018-09-17T11:11:19.152Z,26.35
2018-09-17T11:12:19.160Z,26.83
2018-09-17T11:13:19.133Z,26.98
2018-09-17T11:14:20.188Z,26.83
2018-09-17T11:15:19.108Z,26.84
2018-09-17T11:16:19.098Z,27.03
2018-09-17T11:17:19.144Z,26.66
2018-09-17T11:18:19.078Z,26.88
2018-09-17T11:19:19.409Z,27.21
2018-09-17T11:20:19.052Z,27.34
2018-09-17T11:21:19.046Z,27.02
2018-09-17T11:22:19.035Z,26.83
2018-09-17T11:23:19.030Z,26.98
2018-09-17T11:24:19.011Z,26.98
2018-09-17T11:25:19.152Z,27.30
2018-09-17T11:26:18.993Z,27.33
2018-09-17T11:27:18.979Z,27.21
2018-09-17T11:28:18.970Z,26.93
2018-09-17T11:29:18.961Z,27.20
2018-09-17T11:30:19.371Z,27.31
2018-09-17T11:31:18.977Z,26.94
2018-09-17T11:32:18.929Z,26.46
2018-09-17T11:33:18.916Z,26.83
2018-09-17T11:34:18.905Z,26.65
2018-09-17T11:35:19.114Z,27.05
2018-09-17T11:36:18.890Z,27.03
2018-09-17T11:37:18.893Z,27.02
2018-09-17T11:38:18.871Z,27.27
2018-09-17T11:39:18.853Z,27.38
2018-09-17T11:40:18.942Z,27.76
2018-09-17T11:41:18.834Z,27.72
2018-09-17T11:42:18.824Z,27.81
2018-09-17T11:43:18.815Z,27.69
2018-09-17T11:44:18.803Z,27.68
2018-09-17T11:45:19.088Z,27.53
2018-09-17T11:46:18.779Z,27.58
2018-09-17T11:47:18.771Z,27.27
2018-09-17T11:48:18.793Z,27.53
2018-09-17T11:49:18.762Z,27.93
2018-09-17T11:50:18.734Z,28.24
2018-09-17T11:51:18.824Z,27.95
2018-09-17T11:52:18.736Z,28.01
2018-09-17T11:53:18.710Z,28.03
2018-09-17T11:54:18.708Z,27.81
2018-09-17T11:55:18.687Z,27.84
2018-09-17T11:56:19.067Z,27.93
2018-09-17T11:57:18.669Z,27.15
2018-09-17T11:58:18.655Z,26.87
2018-09-17T11:59:18.647Z,27.38
2018-09-17T12:00:18.636Z,27.81
2018-09-17T12:01:18.792Z,28.02
2018-09-17T12:02:18.629Z,28.13
2018-09-17T12:03:18.604Z,27.84
2018-09-17T12:04:18.594Z,27.77
2018-09-17T12:05:18.589Z,27.39
2018-09-17T12:06:18.631Z,27.33
2018-09-17T12:07:19.024Z,27.55
2018-09-17T12:08:18.548Z,27.30
2018-09-17T12:09:18.580Z,27.53
2018-09-17T12:10:18.527Z,27.53
2018-09-17T12:11:18.760Z,27.58
2018-09-17T12:12:18.507Z,27.59
2018-09-17T12:13:18.506Z,27.61
2018-09-17T12:14:18.487Z,27.66
2018-09-17T12:15:18.474Z,27.49
2018-09-17T12:16:18.596Z,27.50
2018-09-17T12:17:18.460Z,27.74
2018-09-17T12:18:18.446Z,28.03
2018-09-17T12:19:18.448Z,27.87
2018-09-17T12:20:18.427Z,27.71
2018-09-17T12:21:18.776Z,27.46
2018-09-17T12:22:18.402Z,27.35
2018-09-17T12:23:18.391Z,27.61
2018-09-17T12:24:18.389Z,27.61
2018-09-17T12:25:18.397Z,27.72
2018-09-17T12:26:18.561Z,27.84
2018-09-17T12:27:18.358Z,28.05
2018-09-17T12:28:18.339Z,28.18
2018-09-17T12:29:18.336Z,28.03
2018-09-17T12:30:18.323Z,27.50
2018-09-17T12:31:19.618Z,27.06
2018-09-17T12:32:18.294Z,27.06
2018-09-17T12:33:18.288Z,27.18
2018-09-17T12:34:18.281Z,27.49
2018-09-17T12:35:18.264Z,27.86
2018-09-17T12:36:18.253Z,28.01
2018-09-17T12:37:18.434Z,27.71
2018-09-17T12:38:18.235Z,27.81
2018-09-17T12:39:18.218Z,27.91
2018-09-17T12:40:18.211Z,27.77
2018-09-17T12:41:18.202Z,27.78
2018-09-17T12:42:19.559Z,27.90
2018-09-17T12:43:18.188Z,27.95
2018-09-17T12:44:18.183Z,28.24
2018-09-17T12:45:18.157Z,28.09
2018-09-17T12:46:18.155Z,27.81
2018-09-17T12:47:18.412Z,27.72
2018-09-17T12:48:18.132Z,27.68
2018-09-17T12:49:18.135Z,27.68
2018-09-17T12:50:18.106Z,27.86
2018-09-17T12:51:18.101Z,27.84
2018-09-17T12:52:18.487Z,27.63